sensor_id;sensor_type;location;lat;lon;timestamp;temperature;humidity
22071;DHT22;11200;51.488;6.668;2023-07-29T00:02:16;19.90;99.90
22071;DHT22;11200;51.488;6.668;2023-07-29T00:04:42;19.90;99.90
22071;DHT22;11200;51.488;6.668;2023-07-29T00:07:08;19.80;99.90
22071;DHT22;11200;51.488;6.668;2023-07-29T00:09:33;19.80;99.90
22071;DHT22;11200;51.488;6.668;2023-07-29T00:11:59;19.80;99.90
22071;DHT22;11200;51.488;6.668;2023-07-29T00:14:25;19.80;99.90
22071;DHT22;11200;51.488;6.668;2023-07-29T00:16:50;19.70;99.90
22071;DHT22;11200;51.488;6.668;2023-07-29T00:19:16;19.70;99.90
22071;DHT22;11200;51.488;6.668;2023-07-29T00:21:42;19.70;99.90
22071;DHT22;11200;51.488;6.668;2023-07-29T00:24:07;19.70;99.90
22071;DHT22;11200;51.488;6.668;2023-07-29T00:26:33;19.50;99.90
22071;DHT22;11200;51.488;6.668;2023-07-29T00:28:59;19.60;99.90
22071;DHT22;11200;51.488;6.668;2023-07-29T00:31:25;19.60;99.90
22071;DHT22;11200;51.488;6.668;2023-07-29T00:33:50;19.60;99.90
22071;DHT22;11200;51.488;6.668;2023-07-29T00:36:18;19.60;99.90
22071;DHT22;11200;51.488;6.668;2023-07-29T00:38:43;19.60;99.90
22071;DHT22;11200;51.488;6.668;2023-07-29T00:41:10;19.60;99.90
22071;DHT22;11200;51.488;6.668;2023-07-29T00:43:38;19.60;99.90
22071;DHT22;11200;51.488;6.668;2023-07-29T00:46:04;19.60;99.90
22071;DHT22;11200;51.488;6.668;2023-07-29T00:48:31;19.60;99.90
22071;DHT22;11200;51.488;6.668;2023-07-29T00:50:57;19.50;99.90
22071;DHT22;11200;51.488;6.668;2023-07-29T00:53:22;19.60;99.90
22071;DHT22;11200;51.488;6.668;2023-07-29T00:55:48;19.50;99.90
22071;DHT22;11200;51.488;6.668;2023-07-29T00:58:14;19.50;99.90
22071;DHT22;11200;51.488;6.668;2023-07-29T01:00:40;19.50;99.90
22071;DHT22;11200;51.488;6.668;2023-07-29T01:03:06;19.50;99.90
22071;DHT22;11200;51.488;6.668;2023-07-29T01:06:01;19.50;99.90
22071;DHT22;11200;51.488;6.668;2023-07-29T01:09:02;19.50;99.90
22071;DHT22;11200;51.488;6.668;2023-07-29T01:16:42;19.50;99.90
22071;DHT22;11200;51.488;6.668;2023-07-29T01:19:22;19.50;99.90
22071;DHT22;11200;51.488;6.668;2023-07-29T01:21:54;19.50;99.90
22071;DHT22;11200;51.488;6.668;2023-07-29T01:24:20;19.50;99.90
22071;DHT22;11200;51.488;6.668;2023-07-29T01:26:45;19.40;99.90
22071;DHT22;11200;51.488;6.668;2023-07-29T01:29:11;19.50;99.90
22071;DHT22;11200;51.488;6.668;2023-07-29T01:31:43;19.50;99.90
22071;DHT22;11200;51.488;6.668;2023-07-29T01:34:29;19.50;99.90
22071;DHT22;11200;51.488;6.668;2023-07-29T01:36:58;19.50;99.90
22071;DHT22;11200;51.488;6.668;2023-07-29T01:39:26;19.50;99.90
22071;DHT22;11200;51.488;6.668;2023-07-29T01:41:54;19.50;99.90
22071;DHT22;11200;51.488;6.668;2023-07-29T01:44:20;19.40;99.90
22071;DHT22;11200;51.488;6.668;2023-07-29T01:46:47;19.50;99.90
22071;DHT22;11200;51.488;6.668;2023-07-29T01:49:12;19.50;99.90
22071;DHT22;11200;51.488;6.668;2023-07-29T01:51:38;19.50;99.90
22071;DHT22;11200;51.488;6.668;2023-07-29T01:54:04;19.50;99.90
22071;DHT22;11200;51.488;6.668;2023-07-29T01:56:29;19.50;99.90
22071;DHT22;11200;51.488;6.668;2023-07-29T01:58:55;19.50;99.90
22071;DHT22;11200;51.488;6.668;2023-07-29T02:01:21;19.50;99.90
22071;DHT22;11200;51.488;6.668;2023-07-29T02:03:47;19.50;99.90
22071;DHT22;11200;51.488;6.668;2023-07-29T02:06:18;19.50;99.90
22071;DHT22;11200;51.488;6.668;2023-07-29T02:08:44;19.50;99.90
22071;DHT22;11200;51.488;6.668;2023-07-29T02:11:09;19.50;99.90
22071;DHT22;11200;51.488;6.668;2023-07-29T02:13:35;19.50;99.90
22071;DHT22;11200;51.488;6.668;2023-07-29T02:16:01;19.50;99.90
22071;DHT22;11200;51.488;6.668;2023-07-29T02:18:27;19.50;99.90
22071;DHT22;11200;51.488;6.668;2023-07-29T02:20:53;19.50;99.90
22071;DHT22;11200;51.488;6.668;2023-07-29T02:23:18;19.50;99.90
22071;DHT22;11200;51.488;6.668;2023-07-29T02:25:44;19.40;99.90
22071;DHT22;11200;51.488;6.668;2023-07-29T02:28:10;19.50;99.90
22071;DHT22;11200;51.488;6.668;2023-07-29T02:30:36;19.50;99.90
22071;DHT22;11200;51.488;6.668;2023-07-29T02:33:02;19.50;99.90
22071;DHT22;11200;51.488;6.668;2023-07-29T02:35:28;19.50;99.90
22071;DHT22;11200;51.488;6.668;2023-07-29T02:37:53;19.50;99.90
22071;DHT22;11200;51.488;6.668;2023-07-29T02:40:19;19.40;99.90
22071;DHT22;11200;51.488;6.668;2023-07-29T02:43:06;19.50;99.90
22071;DHT22;11200;51.488;6.668;2023-07-29T02:45:32;19.50;99.90
22071;DHT22;11200;51.488;6.668;2023-07-29T02:47:58;19.40;99.90
22071;DHT22;11200;51.488;6.668;2023-07-29T02:50:23;19.40;99.90
22071;DHT22;11200;51.488;6.668;2023-07-29T02:52:49;19.40;99.90
22071;DHT22;11200;51.488;6.668;2023-07-29T02:55:14;19.40;99.90
22071;DHT22;11200;51.488;6.668;2023-07-29T02:57:40;19.40;99.90
22071;DHT22;11200;51.488;6.668;2023-07-29T03:00:06;19.40;99.90
22071;DHT22;11200;51.488;6.668;2023-07-29T03:02:32;19.40;99.90
22071;DHT22;11200;51.488;6.668;2023-07-29T03:04:58;19.40;99.90
22071;DHT22;11200;51.488;6.668;2023-07-29T03:07:23;19.40;99.90
22071;DHT22;11200;51.488;6.668;2023-07-29T03:09:49;19.40;99.90
22071;DHT22;11200;51.488;6.668;2023-07-29T03:12:15;19.40;99.90
22071;DHT22;11200;51.488;6.668;2023-07-29T03:14:40;19.40;99.90
22071;DHT22;11200;51.488;6.668;2023-07-29T03:17:07;19.40;99.90
22071;DHT22;11200;51.488;6.668;2023-07-29T03:19:33;19.40;99.90
22071;DHT22;11200;51.488;6.668;2023-07-29T03:21:59;19.40;99.90
22071;DHT22;11200;51.488;6.668;2023-07-29T03:24:25;19.40;99.90
22071;DHT22;11200;51.488;6.668;2023-07-29T03:26:50;19.50;99.90
22071;DHT22;11200;51.488;6.668;2023-07-29T03:29:16;19.40;99.90
22071;DHT22;11200;51.488;6.668;2023-07-29T03:31:42;19.40;99.90
22071;DHT22;11200;51.488;6.668;2023-07-29T03:34:08;19.40;99.90
22071;DHT22;11200;51.488;6.668;2023-07-29T03:36:35;19.40;99.90
22071;DHT22;11200;51.488;6.668;2023-07-29T03:39:01;19.40;99.90
22071;DHT22;11200;51.488;6.668;2023-07-29T03:41:29;19.40;99.90
22071;DHT22;11200;51.488;6.668;2023-07-29T03:43:54;19.40;99.90
22071;DHT22;11200;51.488;6.668;2023-07-29T03:46:20;19.40;99.90
22071;DHT22;11200;51.488;6.668;2023-07-29T03:48:47;19.40;99.90
22071;DHT22;11200;51.488;6.668;2023-07-29T03:51:13;19.40;99.90
22071;DHT22;11200;51.488;6.668;2023-07-29T03:53:40;19.40;99.90
22071;DHT22;11200;51.488;6.668;2023-07-29T03:56:05;19.40;99.90
22071;DHT22;11200;51.488;6.668;2023-07-29T03:58:31;19.30;99.90
22071;DHT22;11200;51.488;6.668;2023-07-29T04:00:57;19.40;99.90
22071;DHT22;11200;51.488;6.668;2023-07-29T04:03:23;19.30;99.90
22071;DHT22;11200;51.488;6.668;2023-07-29T04:05:48;19.30;99.90
22071;DHT22;11200;51.488;6.668;2023-07-29T04:08:14;19.30;99.90
22071;DHT22;11200;51.488;6.668;2023-07-29T04:10:40;19.30;99.90
22071;DHT22;11200;51.488;6.668;2023-07-29T04:13:06;19.30;99.90
22071;DHT22;11200;51.488;6.668;2023-07-29T04:15:31;19.20;99.90
22071;DHT22;11200;51.488;6.668;2023-07-29T04:17:57;19.20;99.90
22071;DHT22;11200;51.488;6.668;2023-07-29T04:20:23;19.20;99.90
22071;DHT22;11200;51.488;6.668;2023-07-29T04:22:48;19.20;99.90
22071;DHT22;11200;51.488;6.668;2023-07-29T04:25:14;19.20;99.90
22071;DHT22;11200;51.488;6.668;2023-07-29T04:27:40;19.10;99.90
22071;DHT22;11200;51.488;6.668;2023-07-29T04:30:06;19.10;99.90
22071;DHT22;11200;51.488;6.668;2023-07-29T04:32:31;19.10;99.90
22071;DHT22;11200;51.488;6.668;2023-07-29T04:34:57;19.10;99.90
22071;DHT22;11200;51.488;6.668;2023-07-29T04:37:23;19.10;99.90
22071;DHT22;11200;51.488;6.668;2023-07-29T04:39:49;19.10;99.90
22071;DHT22;11200;51.488;6.668;2023-07-29T04:42:15;19.00;99.90
22071;DHT22;11200;51.488;6.668;2023-07-29T04:44:40;19.00;99.90
22071;DHT22;11200;51.488;6.668;2023-07-29T04:47:07;19.00;99.90
22071;DHT22;11200;51.488;6.668;2023-07-29T04:49:33;19.00;99.90
22071;DHT22;11200;51.488;6.668;2023-07-29T04:51:58;19.00;99.90
22071;DHT22;11200;51.488;6.668;2023-07-29T04:54:24;19.00;99.90
22071;DHT22;11200;51.488;6.668;2023-07-29T04:56:50;18.90;99.90
22071;DHT22;11200;51.488;6.668;2023-07-29T04:59:15;18.90;99.90
22071;DHT22;11200;51.488;6.668;2023-07-29T05:01:41;18.90;99.90
22071;DHT22;11200;51.488;6.668;2023-07-29T05:04:08;18.80;99.90
22071;DHT22;11200;51.488;6.668;2023-07-29T05:06:34;18.80;99.90
22071;DHT22;11200;51.488;6.668;2023-07-29T05:09:12;18.80;99.90
22071;DHT22;11200;51.488;6.668;2023-07-29T05:11:38;18.80;99.90
22071;DHT22;11200;51.488;6.668;2023-07-29T05:14:04;18.80;99.90
22071;DHT22;11200;51.488;6.668;2023-07-29T05:16:31;18.80;99.90
22071;DHT22;11200;51.488;6.668;2023-07-29T05:18:57;18.80;99.90
22071;DHT22;11200;51.488;6.668;2023-07-29T05:21:23;18.80;99.90
22071;DHT22;11200;51.488;6.668;2023-07-29T05:23:48;18.80;99.90
22071;DHT22;11200;51.488;6.668;2023-07-29T05:26:14;18.80;99.90
22071;DHT22;11200;51.488;6.668;2023-07-29T05:28:40;18.80;99.90
22071;DHT22;11200;51.488;6.668;2023-07-29T05:31:05;18.70;99.90
22071;DHT22;11200;51.488;6.668;2023-07-29T05:33:31;18.70;99.90
22071;DHT22;11200;51.488;6.668;2023-07-29T05:35:57;18.70;99.90
22071;DHT22;11200;51.488;6.668;2023-07-29T05:38:22;18.70;99.90
22071;DHT22;11200;51.488;6.668;2023-07-29T05:40:48;18.70;99.90
22071;DHT22;11200;51.488;6.668;2023-07-29T05:46:36;18.70;99.90
22071;DHT22;11200;51.488;6.668;2023-07-29T05:49:01;18.70;99.90
22071;DHT22;11200;51.488;6.668;2023-07-29T05:51:28;18.70;99.90
22071;DHT22;11200;51.488;6.668;2023-07-29T05:53:53;18.70;99.90
22071;DHT22;11200;51.488;6.668;2023-07-29T05:56:20;18.70;99.90
22071;DHT22;11200;51.488;6.668;2023-07-29T05:58:46;18.70;99.90
22071;DHT22;11200;51.488;6.668;2023-07-29T06:01:11;18.60;99.90
22071;DHT22;11200;51.488;6.668;2023-07-29T06:03:37;18.60;99.90
22071;DHT22;11200;51.488;6.668;2023-07-29T06:06:03;18.60;99.90
22071;DHT22;11200;51.488;6.668;2023-07-29T06:08:28;18.60;99.90
22071;DHT22;11200;51.488;6.668;2023-07-29T06:10:54;18.60;99.90
22071;DHT22;11200;51.488;6.668;2023-07-29T06:13:20;18.60;99.90
22071;DHT22;11200;51.488;6.668;2023-07-29T06:15:46;18.60;99.90
22071;DHT22;11200;51.488;6.668;2023-07-29T06:18:12;18.60;99.90
22071;DHT22;11200;51.488;6.668;2023-07-29T06:20:37;18.60;99.90
22071;DHT22;11200;51.488;6.668;2023-07-29T06:23:03;18.60;99.90
22071;DHT22;11200;51.488;6.668;2023-07-29T06:25:29;18.70;99.90
22071;DHT22;11200;51.488;6.668;2023-07-29T06:27:55;18.60;99.90
22071;DHT22;11200;51.488;6.668;2023-07-29T06:30:20;18.60;99.90
22071;DHT22;11200;51.488;6.668;2023-07-29T06:32:46;18.70;99.90
22071;DHT22;11200;51.488;6.668;2023-07-29T06:35:13;18.70;99.90
22071;DHT22;11200;51.488;6.668;2023-07-29T06:37:38;18.70;99.90
22071;DHT22;11200;51.488;6.668;2023-07-29T06:40:04;18.70;99.90
22071;DHT22;11200;51.488;6.668;2023-07-29T06:42:30;18.70;99.90
22071;DHT22;11200;51.488;6.668;2023-07-29T06:44:56;18.70;99.90
22071;DHT22;11200;51.488;6.668;2023-07-29T06:47:22;18.70;99.90
22071;DHT22;11200;51.488;6.668;2023-07-29T06:49:47;18.70;99.90
22071;DHT22;11200;51.488;6.668;2023-07-29T06:52:13;18.70;99.90
22071;DHT22;11200;51.488;6.668;2023-07-29T06:54:39;18.70;99.90
22071;DHT22;11200;51.488;6.668;2023-07-29T06:57:05;18.80;99.90
22071;DHT22;11200;51.488;6.668;2023-07-29T06:59:30;18.80;99.90
22071;DHT22;11200;51.488;6.668;2023-07-29T07:01:56;18.70;99.90
22071;DHT22;11200;51.488;6.668;2023-07-29T07:04:22;18.80;99.90
22071;DHT22;11200;51.488;6.668;2023-07-29T07:06:47;18.80;99.90
22071;DHT22;11200;51.488;6.668;2023-07-29T07:09:13;18.80;99.90
22071;DHT22;11200;51.488;6.668;2023-07-29T07:11:39;18.80;99.90
22071;DHT22;11200;51.488;6.668;2023-07-29T07:14:05;18.80;99.90
22071;DHT22;11200;51.488;6.668;2023-07-29T07:16:30;18.90;99.90
22071;DHT22;11200;51.488;6.668;2023-07-29T07:18:56;18.90;99.90
22071;DHT22;11200;51.488;6.668;2023-07-29T07:21:22;18.90;99.90
22071;DHT22;11200;51.488;6.668;2023-07-29T07:23:50;18.90;99.90
22071;DHT22;11200;51.488;6.668;2023-07-29T07:26:15;19.00;99.90
22071;DHT22;11200;51.488;6.668;2023-07-29T07:28:41;19.00;99.90
22071;DHT22;11200;51.488;6.668;2023-07-29T07:31:07;19.00;99.90
22071;DHT22;11200;51.488;6.668;2023-07-29T07:33:32;19.00;99.90
22071;DHT22;11200;51.488;6.668;2023-07-29T07:35:58;19.10;99.90
22071;DHT22;11200;51.488;6.668;2023-07-29T07:38:23;19.10;99.90
22071;DHT22;11200;51.488;6.668;2023-07-29T07:40:57;19.10;99.90
22071;DHT22;11200;51.488;6.668;2023-07-29T07:43:23;19.20;99.90
22071;DHT22;11200;51.488;6.668;2023-07-29T07:45:49;19.20;99.90
22071;DHT22;11200;51.488;6.668;2023-07-29T07:48:15;19.20;99.90
22071;DHT22;11200;51.488;6.668;2023-07-29T07:50:43;19.30;99.90
22071;DHT22;11200;51.488;6.668;2023-07-29T07:53:08;19.30;99.90
22071;DHT22;11200;51.488;6.668;2023-07-29T07:55:34;19.30;99.90
22071;DHT22;11200;51.488;6.668;2023-07-29T07:58:00;19.40;99.90
22071;DHT22;11200;51.488;6.668;2023-07-29T08:00:25;19.40;99.90
22071;DHT22;11200;51.488;6.668;2023-07-29T08:02:51;19.50;99.90
22071;DHT22;11200;51.488;6.668;2023-07-29T08:05:16;19.60;99.90
22071;DHT22;11200;51.488;6.668;2023-07-29T08:07:43;19.70;99.90
22071;DHT22;11200;51.488;6.668;2023-07-29T08:10:09;19.70;99.90
22071;DHT22;11200;51.488;6.668;2023-07-29T08:12:35;19.80;99.90
22071;DHT22;11200;51.488;6.668;2023-07-29T08:15:00;19.90;99.90
22071;DHT22;11200;51.488;6.668;2023-07-29T08:17:26;20.00;99.90
22071;DHT22;11200;51.488;6.668;2023-07-29T08:19:52;20.10;99.90
22071;DHT22;11200;51.488;6.668;2023-07-29T08:22:17;20.20;99.90
22071;DHT22;11200;51.488;6.668;2023-07-29T08:24:43;20.40;99.90
22071;DHT22;11200;51.488;6.668;2023-07-29T08:27:09;20.50;99.90
22071;DHT22;11200;51.488;6.668;2023-07-29T08:29:35;20.60;99.90
22071;DHT22;11200;51.488;6.668;2023-07-29T08:32:00;20.70;99.90
22071;DHT22;11200;51.488;6.668;2023-07-29T08:34:26;20.80;99.90
22071;DHT22;11200;51.488;6.668;2023-07-29T08:36:52;21.00;99.90
22071;DHT22;11200;51.488;6.668;2023-07-29T08:39:17;21.10;99.90
22071;DHT22;11200;51.488;6.668;2023-07-29T08:41:51;21.20;99.90
22071;DHT22;11200;51.488;6.668;2023-07-29T08:44:22;21.30;99.90
22071;DHT22;11200;51.488;6.668;2023-07-29T08:46:49;21.40;99.90
22071;DHT22;11200;51.488;6.668;2023-07-29T08:49:17;21.40;99.90
22071;DHT22;11200;51.488;6.668;2023-07-29T08:51:46;21.40;99.90
22071;DHT22;11200;51.488;6.668;2023-07-29T08:54:13;21.40;99.90
22071;DHT22;11200;51.488;6.668;2023-07-29T08:56:41;21.50;99.90
22071;DHT22;11200;51.488;6.668;2023-07-29T08:59:08;21.40;99.90
22071;DHT22;11200;51.488;6.668;2023-07-29T09:01:34;21.50;99.90
22071;DHT22;11200;51.488;6.668;2023-07-29T09:04:00;21.50;99.90
22071;DHT22;11200;51.488;6.668;2023-07-29T09:06:26;21.40;99.90
22071;DHT22;11200;51.488;6.668;2023-07-29T09:08:54;21.40;99.90
22071;DHT22;11200;51.488;6.668;2023-07-29T09:11:22;21.40;99.90
22071;DHT22;11200;51.488;6.668;2023-07-29T09:13:48;21.40;99.90
22071;DHT22;11200;51.488;6.668;2023-07-29T09:16:14;21.40;99.90
22071;DHT22;11200;51.488;6.668;2023-07-29T09:18:39;21.40;99.90
22071;DHT22;11200;51.488;6.668;2023-07-29T09:21:05;21.30;99.90
22071;DHT22;11200;51.488;6.668;2023-07-29T09:23:41;21.30;99.90
22071;DHT22;11200;51.488;6.668;2023-07-29T09:26:09;21.30;99.90
22071;DHT22;11200;51.488;6.668;2023-07-29T09:28:39;21.20;99.90
22071;DHT22;11200;51.488;6.668;2023-07-29T09:31:05;21.20;99.90
22071;DHT22;11200;51.488;6.668;2023-07-29T09:33:35;21.20;99.90
22071;DHT22;11200;51.488;6.668;2023-07-29T09:36:14;21.20;99.90
22071;DHT22;11200;51.488;6.668;2023-07-29T09:38:39;21.20;99.90
22071;DHT22;11200;51.488;6.668;2023-07-29T09:41:05;21.20;99.90
22071;DHT22;11200;51.488;6.668;2023-07-29T09:43:33;21.20;99.90
22071;DHT22;11200;51.488;6.668;2023-07-29T09:46:00;21.20;99.90
22071;DHT22;11200;51.488;6.668;2023-07-29T09:48:26;21.20;99.90
22071;DHT22;11200;51.488;6.668;2023-07-29T09:50:54;21.30;99.90
22071;DHT22;11200;51.488;6.668;2023-07-29T09:53:21;21.30;99.90
22071;DHT22;11200;51.488;6.668;2023-07-29T09:55:49;21.30;99.90
22071;DHT22;11200;51.488;6.668;2023-07-29T09:58:26;21.40;99.90
22071;DHT22;11200;51.488;6.668;2023-07-29T10:00:52;21.50;99.90
22071;DHT22;11200;51.488;6.668;2023-07-29T10:03:21;21.70;99.90
22071;DHT22;11200;51.488;6.668;2023-07-29T10:05:47;21.80;99.90
22071;DHT22;11200;51.488;6.668;2023-07-29T10:08:14;21.90;99.90
22071;DHT22;11200;51.488;6.668;2023-07-29T10:10:42;22.10;99.90
22071;DHT22;11200;51.488;6.668;2023-07-29T10:13:09;22.20;99.90
22071;DHT22;11200;51.488;6.668;2023-07-29T10:15:35;22.40;99.90
22071;DHT22;11200;51.488;6.668;2023-07-29T10:18:02;22.50;99.90
22071;DHT22;11200;51.488;6.668;2023-07-29T10:20:30;22.70;99.90
22071;DHT22;11200;51.488;6.668;2023-07-29T10:22:56;22.80;99.90
22071;DHT22;11200;51.488;6.668;2023-07-29T10:25:25;23.00;99.90
22071;DHT22;11200;51.488;6.668;2023-07-29T10:28:04;23.10;99.90
22071;DHT22;11200;51.488;6.668;2023-07-29T10:30:30;23.20;99.90
22071;DHT22;11200;51.488;6.668;2023-07-29T10:32:58;23.30;99.90
22071;DHT22;11200;51.488;6.668;2023-07-29T10:35:27;23.40;99.90
22071;DHT22;11200;51.488;6.668;2023-07-29T10:37:55;23.40;99.90
22071;DHT22;11200;51.488;6.668;2023-07-29T10:40:21;23.50;99.90
22071;DHT22;11200;51.488;6.668;2023-07-29T10:43:01;23.50;99.90
22071;DHT22;11200;51.488;6.668;2023-07-29T10:45:38;23.60;99.90
22071;DHT22;11200;51.488;6.668;2023-07-29T10:48:11;23.60;99.90
22071;DHT22;11200;51.488;6.668;2023-07-29T10:50:37;23.70;99.90
22071;DHT22;11200;51.488;6.668;2023-07-29T10:53:04;23.80;99.90
22071;DHT22;11200;51.488;6.668;2023-07-29T10:55:34;23.80;99.90
22071;DHT22;11200;51.488;6.668;2023-07-29T10:58:07;23.90;99.90
22071;DHT22;11200;51.488;6.668;2023-07-29T11:00:33;23.90;99.90
22071;DHT22;11200;51.488;6.668;2023-07-29T11:03:10;23.90;99.90
22071;DHT22;11200;51.488;6.668;2023-07-29T11:08:18;24.00;99.90
22071;DHT22;11200;51.488;6.668;2023-07-29T11:13:36;24.00;99.90
22071;DHT22;11200;51.488;6.668;2023-07-29T11:16:05;24.00;99.90
22071;DHT22;11200;51.488;6.668;2023-07-29T11:18:32;24.00;99.90
22071;DHT22;11200;51.488;6.668;2023-07-29T11:21:00;24.00;99.90
22071;DHT22;11200;51.488;6.668;2023-07-29T11:23:34;24.00;99.90
22071;DHT22;11200;51.488;6.668;2023-07-29T11:26:01;24.00;99.90
22071;DHT22;11200;51.488;6.668;2023-07-29T11:28:27;24.00;99.90
22071;DHT22;11200;51.488;6.668;2023-07-29T11:30:57;24.00;99.90
22071;DHT22;11200;51.488;6.668;2023-07-29T11:33:25;24.00;99.90
22071;DHT22;11200;51.488;6.668;2023-07-29T11:35:52;24.00;99.90
22071;DHT22;11200;51.488;6.668;2023-07-29T11:38:20;24.00;99.90
22071;DHT22;11200;51.488;6.668;2023-07-29T11:41:01;24.10;99.90
22071;DHT22;11200;51.488;6.668;2023-07-29T11:43:35;24.20;99.90
22071;DHT22;11200;51.488;6.668;2023-07-29T11:46:03;24.20;99.90
22071;DHT22;11200;51.488;6.668;2023-07-29T11:48:32;24.30;99.90
22071;DHT22;11200;51.488;6.668;2023-07-29T11:50:58;24.40;99.90
22071;DHT22;11200;51.488;6.668;2023-07-29T11:53:28;24.40;99.90
22071;DHT22;11200;51.488;6.668;2023-07-29T11:55:55;24.50;99.90
22071;DHT22;11200;51.488;6.668;2023-07-29T11:58:21;24.60;99.90
22071;DHT22;11200;51.488;6.668;2023-07-29T12:00:47;24.60;99.90
22071;DHT22;11200;51.488;6.668;2023-07-29T12:03:14;24.60;99.90
22071;DHT22;11200;51.488;6.668;2023-07-29T12:05:41;24.60;99.90
22071;DHT22;11200;51.488;6.668;2023-07-29T12:08:08;24.60;99.90
22071;DHT22;11200;51.488;6.668;2023-07-29T12:10:35;24.60;99.90
22071;DHT22;11200;51.488;6.668;2023-07-29T12:13:02;24.60;99.90
22071;DHT22;11200;51.488;6.668;2023-07-29T12:15:29;24.60;99.90
22071;DHT22;11200;51.488;6.668;2023-07-29T12:17:56;24.50;99.90
22071;DHT22;11200;51.488;6.668;2023-07-29T12:20:23;24.60;99.90
22071;DHT22;11200;51.488;6.668;2023-07-29T12:22:54;24.60;99.90
22071;DHT22;11200;51.488;6.668;2023-07-29T12:25:20;24.70;99.90
22071;DHT22;11200;51.488;6.668;2023-07-29T12:27:45;24.70;99.90
22071;DHT22;11200;51.488;6.668;2023-07-29T12:30:11;24.70;99.90
22071;DHT22;11200;51.488;6.668;2023-07-29T12:32:47;24.70;99.90
22071;DHT22;11200;51.488;6.668;2023-07-29T12:35:13;24.70;99.90
22071;DHT22;11200;51.488;6.668;2023-07-29T12:37:38;24.70;99.90
22071;DHT22;11200;51.488;6.668;2023-07-29T12:40:28;24.70;99.90
22071;DHT22;11200;51.488;6.668;2023-07-29T12:42:54;24.70;99.90
22071;DHT22;11200;51.488;6.668;2023-07-29T12:45:20;24.60;99.90
22071;DHT22;11200;51.488;6.668;2023-07-29T12:47:48;24.70;99.90
22071;DHT22;11200;51.488;6.668;2023-07-29T12:50:14;24.70;99.90
22071;DHT22;11200;51.488;6.668;2023-07-29T12:52:39;24.70;99.90
22071;DHT22;11200;51.488;6.668;2023-07-29T12:55:05;24.70;99.90
22071;DHT22;11200;51.488;6.668;2023-07-29T12:57:34;24.80;99.90
22071;DHT22;11200;51.488;6.668;2023-07-29T13:00:00;24.80;99.90
22071;DHT22;11200;51.488;6.668;2023-07-29T13:02:25;24.90;99.90
22071;DHT22;11200;51.488;6.668;2023-07-29T13:04:51;24.90;99.90
22071;DHT22;11200;51.488;6.668;2023-07-29T13:07:17;24.90;99.90
22071;DHT22;11200;51.488;6.668;2023-07-29T13:09:43;24.90;99.90
22071;DHT22;11200;51.488;6.668;2023-07-29T13:12:08;24.90;99.90
22071;DHT22;11200;51.488;6.668;2023-07-29T13:14:34;24.90;99.90
22071;DHT22;11200;51.488;6.668;2023-07-29T13:17:00;24.90;99.90
22071;DHT22;11200;51.488;6.668;2023-07-29T13:19:25;24.90;99.90
22071;DHT22;11200;51.488;6.668;2023-07-29T13:21:51;24.90;99.90
22071;DHT22;11200;51.488;6.668;2023-07-29T13:24:17;24.80;99.90
22071;DHT22;11200;51.488;6.668;2023-07-29T13:26:42;24.80;99.90
22071;DHT22;11200;51.488;6.668;2023-07-29T13:29:08;24.80;99.90
22071;DHT22;11200;51.488;6.668;2023-07-29T13:31:33;24.80;99.90
22071;DHT22;11200;51.488;6.668;2023-07-29T13:33:59;24.70;99.90
22071;DHT22;11200;51.488;6.668;2023-07-29T13:36:25;24.60;99.90
22071;DHT22;11200;51.488;6.668;2023-07-29T13:38:50;24.60;99.90
22071;DHT22;11200;51.488;6.668;2023-07-29T13:41:16;24.50;99.90
22071;DHT22;11200;51.488;6.668;2023-07-29T13:43:42;24.50;99.90
22071;DHT22;11200;51.488;6.668;2023-07-29T13:46:08;24.40;99.90
22071;DHT22;11200;51.488;6.668;2023-07-29T13:48:33;24.30;99.90
22071;DHT22;11200;51.488;6.668;2023-07-29T13:51:01;24.20;99.90
22071;DHT22;11200;51.488;6.668;2023-07-29T13:53:26;24.10;99.90
22071;DHT22;11200;51.488;6.668;2023-07-29T13:55:52;24.00;99.90
22071;DHT22;11200;51.488;6.668;2023-07-29T13:58:18;24.00;99.90
22071;DHT22;11200;51.488;6.668;2023-07-29T14:00:43;23.80;99.90
22071;DHT22;11200;51.488;6.668;2023-07-29T14:03:09;23.80;99.90
22071;DHT22;11200;51.488;6.668;2023-07-29T14:05:35;23.60;99.90
22071;DHT22;11200;51.488;6.668;2023-07-29T14:08:00;23.60;99.90
22071;DHT22;11200;51.488;6.668;2023-07-29T14:10:26;23.50;99.90
22071;DHT22;11200;51.488;6.668;2023-07-29T14:12:52;23.40;99.90
22071;DHT22;11200;51.488;6.668;2023-07-29T14:15:18;23.30;99.90
22071;DHT22;11200;51.488;6.668;2023-07-29T14:17:43;23.10;99.90
22071;DHT22;11200;51.488;6.668;2023-07-29T14:20:09;23.00;99.90
22071;DHT22;11200;51.488;6.668;2023-07-29T14:22:36;23.10;99.90
22071;DHT22;11200;51.488;6.668;2023-07-29T14:25:01;22.90;99.90
22071;DHT22;11200;51.488;6.668;2023-07-29T14:27:27;22.90;99.90
22071;DHT22;11200;51.488;6.668;2023-07-29T14:29:53;22.80;99.90
22071;DHT22;11200;51.488;6.668;2023-07-29T14:32:18;22.70;99.90
22071;DHT22;11200;51.488;6.668;2023-07-29T14:34:44;22.70;99.90
22071;DHT22;11200;51.488;6.668;2023-07-29T14:37:10;22.70;99.90
22071;DHT22;11200;51.488;6.668;2023-07-29T14:39:35;22.70;99.90
22071;DHT22;11200;51.488;6.668;2023-07-29T14:42:01;22.70;99.90
22071;DHT22;11200;51.488;6.668;2023-07-29T14:44:27;22.70;99.90
22071;DHT22;11200;51.488;6.668;2023-07-29T14:46:52;22.70;99.90
22071;DHT22;11200;51.488;6.668;2023-07-29T14:49:19;22.70;99.90
22071;DHT22;11200;51.488;6.668;2023-07-29T14:51:44;22.70;99.90
22071;DHT22;11200;51.488;6.668;2023-07-29T14:54:10;22.70;99.90
22071;DHT22;11200;51.488;6.668;2023-07-29T14:56:36;22.70;99.90
22071;DHT22;11200;51.488;6.668;2023-07-29T14:59:01;22.70;99.90
22071;DHT22;11200;51.488;6.668;2023-07-29T15:01:27;22.60;99.90
22071;DHT22;11200;51.488;6.668;2023-07-29T15:03:53;22.60;99.90
22071;DHT22;11200;51.488;6.668;2023-07-29T15:06:18;22.60;99.90
22071;DHT22;11200;51.488;6.668;2023-07-29T15:08:44;22.60;99.90
22071;DHT22;11200;51.488;6.668;2023-07-29T15:11:10;22.50;99.90
22071;DHT22;11200;51.488;6.668;2023-07-29T15:13:35;22.50;99.90
22071;DHT22;11200;51.488;6.668;2023-07-29T15:16:01;22.40;99.90
22071;DHT22;11200;51.488;6.668;2023-07-29T15:18:27;22.40;99.90
22071;DHT22;11200;51.488;6.668;2023-07-29T15:20:58;22.40;99.90
22071;DHT22;11200;51.488;6.668;2023-07-29T15:23:25;22.30;99.90
22071;DHT22;11200;51.488;6.668;2023-07-29T15:25:51;22.40;99.90
22071;DHT22;11200;51.488;6.668;2023-07-29T15:28:17;22.30;99.90
22071;DHT22;11200;51.488;6.668;2023-07-29T15:30:42;22.30;99.90
22071;DHT22;11200;51.488;6.668;2023-07-29T15:33:08;22.20;99.90
22071;DHT22;11200;51.488;6.668;2023-07-29T15:35:38;22.20;99.90
22071;DHT22;11200;51.488;6.668;2023-07-29T15:38:07;22.20;99.90
22071;DHT22;11200;51.488;6.668;2023-07-29T15:40:32;22.30;99.90
22071;DHT22;11200;51.488;6.668;2023-07-29T15:42:58;22.30;99.90